createdAt,value
2019-05-10T00:00:00.564Z,9.32
2019-05-10T00:00:05.564Z,8.56
2019-05-10T00:00:10.567Z,6.93
2019-05-10T00:00:15.567Z,4.69
2019-05-10T00:00:20.950Z,3.96
2019-05-10T00:00:26.417Z,6.14
2019-05-10T00:00:30.569Z,6.19
2019-05-10T00:00:35.570Z,8.63
2019-05-10T00:00:40.571Z,10.09
2019-05-10T00:00:45.575Z,8.44
2019-05-10T00:00:50.574Z,8.33
2019-05-10T00:00:55.575Z,7.57
2019-05-10T00:01:00.576Z,8.62
2019-05-10T00:01:05.577Z,10.80
2019-05-10T00:01:10.577Z,12.50
2019-05-10T00:01:15.578Z,11.36
2019-05-10T00:01:20.581Z,10.26
2019-05-10T00:01:25.580Z,8.20
2019-05-10T00:01:30.583Z,7.53
2019-05-10T00:01:35.710Z,5.72
2019-05-10T00:01:40.583Z,4.29
2019-05-10T00:01:45.589Z,3.83
2019-05-10T00:01:50.586Z,3.67
2019-05-10T00:01:55.587Z,5.03
2019-05-10T00:02:00.587Z,7.21
2019-05-10T00:02:05.589Z,9.62
2019-05-10T00:02:10.590Z,9.12
2019-05-10T00:02:16.043Z,7.83
2019-05-10T00:02:20.592Z,7.41
2019-05-10T00:02:25.676Z,7.27
2019-05-10T00:02:30.594Z,6.93
2019-05-10T00:02:35.597Z,6.39
2019-05-10T00:02:40.595Z,6.93
2019-05-10T00:02:45.597Z,6.65
2019-05-10T00:02:50.596Z,6.30
2019-05-10T00:02:55.600Z,6.91
2019-05-10T00:03:00.601Z,5.70
2019-05-10T00:03:05.603Z,4.58
2019-05-10T00:03:10.600Z,6.34
2019-05-10T00:03:16.180Z,6.92
2019-05-10T00:03:20.602Z,5.81
2019-05-10T00:03:25.603Z,5.04
2019-05-10T00:03:30.607Z,6.49
2019-05-10T00:03:35.609Z,4.55
2019-05-10T00:03:40.607Z,3.91
2019-05-10T00:03:45.608Z,7.58
2019-05-10T00:03:50.608Z,7.99
2019-05-10T00:03:55.609Z,8.18
2019-05-10T00:04:00.611Z,7.52
2019-05-10T00:04:05.613Z,6.59
2019-05-10T00:04:11.088Z,6.63
2019-05-10T00:04:15.613Z,7.01
2019-05-10T00:04:20.615Z,5.96
2019-05-10T00:04:25.619Z,4.37
2019-05-10T00:04:30.615Z,3.85
2019-05-10T00:04:35.665Z,5.44
2019-05-10T00:04:40.618Z,6.62
2019-05-10T00:04:45.619Z,7.01
2019-05-10T00:04:50.621Z,6.77
2019-05-10T00:04:55.905Z,7.06
2019-05-10T00:05:00.621Z,6.43
2019-05-10T00:05:05.641Z,5.25
2019-05-10T00:05:10.623Z,6.56
2019-05-10T00:05:16.018Z,6.99
2019-05-10T00:05:20.628Z,7.13
2019-05-10T00:05:25.628Z,7.18
2019-05-10T00:05:30.627Z,6.01
2019-05-10T00:05:35.630Z,5.69
2019-05-10T00:05:40.630Z,6.70
2019-05-10T00:05:45.633Z,6.32
2019-05-10T00:05:50.633Z,5.79
2019-05-10T00:05:55.633Z,6.74
2019-05-10T00:06:01.121Z,7.05
2019-05-10T00:06:05.636Z,7.15
2019-05-10T00:06:10.635Z,6.46
2019-05-10T00:06:15.636Z,6.96
2019-05-10T00:06:20.641Z,7.12
2019-05-10T00:06:25.639Z,7.17
2019-05-10T00:06:30.641Z,9.61
2019-05-10T00:06:35.769Z,9.69
2019-05-10T00:06:40.968Z,9.77
2019-05-10T00:06:45.643Z,8.04
2019-05-10T00:06:50.643Z,9.23
2019-05-10T00:06:55.645Z,8.53
2019-05-10T00:07:00.645Z,9.39
2019-05-10T00:07:05.649Z,7.92
2019-05-10T00:07:10.834Z,6.97
2019-05-10T00:07:15.647Z,7.41
2019-05-10T00:07:20.650Z,8.56
2019-05-10T00:07:25.650Z,10.36
2019-05-10T00:07:30.652Z,9.36
2019-05-10T00:07:35.653Z,10.03
2019-05-10T00:07:40.653Z,9.25
2019-05-10T00:07:45.653Z,9.42
2019-05-10T00:07:50.657Z,7.93
2019-05-10T00:07:55.656Z,7.44
2019-05-10T00:08:00.656Z,7.28
2019-05-10T00:08:05.658Z,7.23
2019-05-10T00:08:10.662Z,7.93
2019-05-10T00:08:15.660Z,9.86
2019-05-10T00:08:20.664Z,8.73
2019-05-10T00:08:25.661Z,7.70
2019-05-10T00:08:30.662Z,8.00
2019-05-10T00:08:35.664Z,9.42
2019-05-10T00:08:40.664Z,10.35
2019-05-10T00:08:45.667Z,10.65
2019-05-10T00:08:50.668Z,8.33
2019-05-10T00:08:55.669Z,9.33
2019-05-10T00:09:00.668Z,7.90
2019-05-10T00:09:05.671Z,5.01
2019-05-10T00:09:10.671Z,4.78
2019-05-10T00:09:15.671Z,7.70
2019-05-10T00:09:20.673Z,9.42
2019-05-10T00:09:25.674Z,9.05
2019-05-10T00:09:30.676Z,7.81
2019-05-10T00:09:35.686Z,6.07
2019-05-10T00:09:40.676Z,7.83
2019-05-10T00:09:45.678Z,8.53
2019-05-10T00:09:50.677Z,6.92
2019-05-10T00:09:55.736Z,4.98
2019-05-10T00:10:00.679Z,4.05
2019-05-10T00:10:05.682Z,4.47
2019-05-10T00:10:10.680Z,6.30
2019-05-10T00:10:15.684Z,8.66
2019-05-10T00:10:21.111Z,7.68
2019-05-10T00:10:25.687Z,5.51
2019-05-10T00:10:30.685Z,5.98
2019-05-10T00:10:35.688Z,6.80
2019-05-10T00:10:40.689Z,8.83
2019-05-10T00:10:45.696Z,8.40
2019-05-10T00:10:50.691Z,8.31
2019-05-10T00:10:55.690Z,9.98
2019-05-10T00:11:00.755Z,8.11
2019-05-10T00:11:05.693Z,7.50
2019-05-10T00:11:10.694Z,8.85
2019-05-10T00:11:15.963Z,7.74
2019-05-10T00:11:20.697Z,7.38
2019-05-10T00:11:25.696Z,7.98
2019-05-10T00:11:30.728Z,7.45
2019-05-10T00:11:35.728Z,9.70
2019-05-10T00:11:40.730Z,8.68
2019-05-10T00:11:45.730Z,7.69
2019-05-10T00:11:50.733Z,7.36
2019-05-10T00:11:55.731Z,7.25
2019-05-10T00:12:00.732Z,7.94
2019-05-10T00:12:05.734Z,9.86
2019-05-10T00:12:10.736Z,9.77
2019-05-10T00:12:15.736Z,9.74
2019-05-10T00:12:20.736Z,8.03
2019-05-10T00:12:25.738Z,8.77
2019-05-10T00:12:30.741Z,9.41
2019-05-10T00:12:35.741Z,7.93
2019-05-10T00:12:40.742Z,6.40
2019-05-10T00:12:45.741Z,5.81
2019-05-10T00:12:50.743Z,8.04
2019-05-10T00:12:55.744Z,7.77
2019-05-10T00:13:00.748Z,6.06
2019-05-10T00:13:05.813Z,7.54
2019-05-10T00:13:10.747Z,7.31
2019-05-10T00:13:15.747Z,7.24
2019-05-10T00:13:20.748Z,7.21
2019-05-10T00:13:25.756Z,7.20
2019-05-10T00:13:30.750Z,7.20
2019-05-10T00:13:35.785Z,9.33
2019-05-10T00:13:40.754Z,9.60
2019-05-10T00:13:45.753Z,7.99
2019-05-10T00:13:50.753Z,6.44
2019-05-10T00:13:55.756Z,5.29
2019-05-10T00:14:00.755Z,6.28
2019-05-10T00:14:05.758Z,8.56
2019-05-10T00:14:10.758Z,10.44
2019-05-10T00:14:15.758Z,8.92
2019-05-10T00:14:20.760Z,6.68
2019-05-10T00:14:25.761Z,7.08
2019-05-10T00:14:30.762Z,9.12
2019-05-10T00:14:35.832Z,10.25
2019-05-10T00:14:40.763Z,8.20
2019-05-10T00:14:45.766Z,7.53
2019-05-10T00:14:50.765Z,8.03
2019-05-10T00:14:55.770Z,9.89
2019-05-10T00:15:01.988Z,8.38
2019-05-10T00:15:05.771Z,8.46
2019-05-10T00:15:10.775Z,7.61
2019-05-10T00:15:15.771Z,7.91
2019-05-10T00:15:20.770Z,7.73
2019-05-10T00:15:25.774Z,8.67
2019-05-10T00:15:30.773Z,10.47
2019-05-10T00:15:35.774Z,9.97
2019-05-10T00:15:40.775Z,10.53
2019-05-10T00:15:45.776Z,8.59
2019-05-10T00:15:50.777Z,8.11
2019-05-10T00:15:55.778Z,8.22
2019-05-10T00:16:00.779Z,9.95
2019-05-10T00:16:06.028Z,10.23
2019-05-10T00:16:10.783Z,10.61
2019-05-10T00:16:15.782Z,11.31
2019-05-10T00:16:20.887Z,9.67
2019-05-10T00:16:25.783Z,8.01
2019-05-10T00:16:30.786Z,8.22
2019-05-10T00:16:35.785Z,7.53
2019-05-10T00:16:40.788Z,9.15
2019-05-10T00:16:45.787Z,8.50
2019-05-10T00:16:50.789Z,10.05
2019-05-10T00:16:55.791Z,11.27
2019-05-10T00:17:00.791Z,10.96
2019-05-10T00:17:05.793Z,9.55
2019-05-10T00:17:10.805Z,10.39
2019-05-10T00:17:15.793Z,10.67
2019-05-10T00:17:20.794Z,8.34
2019-05-10T00:17:25.797Z,6.85
2019-05-10T00:17:30.796Z,4.67
2019-05-10T00:17:35.798Z,3.95
2019-05-10T00:17:40.799Z,5.47
2019-05-10T00:17:45.799Z,6.63
2019-05-10T00:17:50.801Z,7.73
2019-05-10T00:17:55.802Z,10.16
2019-05-10T00:18:00.803Z,9.04
2019-05-10T00:18:05.812Z,7.80
2019-05-10T00:18:10.889Z,9.24
2019-05-10T00:18:15.804Z,6.57
2019-05-10T00:18:20.806Z,6.33
2019-05-10T00:18:25.809Z,8.67
2019-05-10T00:18:30.809Z,10.10
2019-05-10T00:18:35.813Z,9.28
2019-05-10T00:18:40.812Z,9.18
2019-05-10T00:18:45.812Z,10.27
2019-05-10T00:18:50.813Z,8.21
2019-05-10T00:18:55.815Z,7.53
2019-05-10T00:19:00.815Z,7.31
2019-05-10T00:19:05.817Z,8.18
2019-05-10T00:19:10.815Z,7.52
2019-05-10T00:19:15.819Z,8.03
2019-05-10T00:19:20.818Z,9.17
2019-05-10T00:19:25.819Z,10.27
2019-05-10T00:19:30.821Z,10.63
2019-05-10T00:19:35.821Z,10.02
2019-05-10T00:19:40.823Z,11.58
2019-05-10T00:19:45.824Z,9.30
2019-05-10T00:19:50.828Z,7.89
2019-05-10T00:19:55.827Z,7.43
2019-05-10T00:20:00.826Z,8.57
2019-05-10T00:20:05.828Z,8.31
2019-05-10T00:20:10.828Z,7.56
2019-05-10T00:20:15.829Z,8.04
2019-05-10T00:20:20.832Z,10.47
2019-05-10T00:20:25.831Z,11.27
2019-05-10T00:20:30.833Z,9.92
2019-05-10T00:20:35.833Z,10.51
2019-05-10T00:20:40.835Z,8.58
2019-05-10T00:20:46.099Z,7.08
2019-05-10T00:20:50.836Z,10.30
2019-05-10T00:20:55.837Z,10.64
2019-05-10T00:21:00.837Z,11.11
2019-05-10T00:21:05.837Z,9.15
2019-05-10T00:21:10.839Z,9.96
2019-05-10T00:21:15.842Z,10.53
2019-05-10T00:21:20.845Z,13.13
2019-05-10T00:21:25.843Z,14.44
2019-05-10T00:21:30.843Z,11.99
2019-05-10T00:21:35.845Z,10.90
2019-05-10T00:21:40.850Z,13.68
2019-05-10T00:21:45.847Z,10.74
2019-05-10T00:21:50.849Z,10.49
2019-05-10T00:21:55.850Z,8.28
2019-05-10T00:22:00.849Z,7.55
2019-05-10T00:22:05.853Z,7.32
2019-05-10T00:22:10.855Z,7.96
2019-05-10T00:22:15.854Z,9.87
2019-05-10T00:22:20.855Z,10.03
2019-05-10T00:22:25.903Z,11.13
2019-05-10T00:22:30.871Z,9.15
2019-05-10T00:22:35.858Z,7.84
2019-05-10T00:22:40.886Z,7.87
2019-05-10T00:22:45.859Z,8.14
2019-05-10T00:22:50.860Z,10.39
2019-05-10T00:22:55.862Z,8.54
2019-05-10T00:23:00.861Z,7.64
2019-05-10T00:23:05.863Z,8.75
2019-05-10T00:23:10.870Z,10.48
2019-05-10T00:23:15.866Z,12.40
2019-05-10T00:23:20.888Z,12.04
2019-05-10T00:23:25.868Z,12.50
2019-05-10T00:23:30.870Z,12.02
2019-05-10T00:23:35.869Z,13.04
2019-05-10T00:23:40.870Z,11.54
2019-05-10T00:23:45.871Z,10.70
2019-05-10T00:23:50.872Z,7.63
2019-05-10T00:23:55.871Z,8.64
2019-05-10T00:24:00.876Z,9.37
2019-05-10T00:24:05.899Z,7.91
2019-05-10T00:24:10.875Z,9.19
2019-05-10T00:24:15.876Z,10.64
2019-05-10T00:24:20.878Z,10.75
2019-05-10T00:24:25.877Z,8.36
2019-05-10T00:24:30.878Z,7.58
2019-05-10T00:24:35.879Z,9.45
2019-05-10T00:24:40.881Z,10.36
2019-05-10T00:24:45.884Z,11.84
2019-05-10T00:24:50.883Z,11.08
2019-05-10T00:24:55.886Z,8.77
2019-05-10T00:25:00.885Z,12.84
2019-05-10T00:25:05.888Z,11.76
2019-05-10T00:25:10.888Z,8.99
2019-05-10T00:25:15.888Z,10.21
2019-05-10T00:25:20.887Z,8.48
2019-05-10T00:25:25.890Z,8.92
2019-05-10T00:25:30.894Z,9.81
2019-05-10T00:25:35.890Z,8.35
2019-05-10T00:25:40.892Z,11.75
2019-05-10T00:25:45.898Z,12.24
2019-05-10T00:25:50.895Z,12.99
2019-05-10T00:25:56.614Z,13.94
2019-05-10T00:26:00.894Z,11.40
2019-05-10T00:26:05.897Z,10.59
2019-05-10T00:26:10.897Z,11.86
2019-05-10T00:26:15.898Z,9.02
2019-05-10T00:26:20.899Z,6.10
2019-05-10T00:26:25.901Z,8.13
2019-05-10T00:26:30.901Z,12.05
2019-05-10T00:26:35.948Z,11.51
2019-05-10T00:26:40.905Z,11.75
2019-05-10T00:26:45.904Z,12.24
2019-05-10T00:26:50.905Z,8.85
2019-05-10T00:26:55.906Z,8.46
2019-05-10T00:27:00.906Z,12.45
2019-05-10T00:27:06.396Z,12.67
2019-05-10T00:27:10.909Z,11.41
2019-05-10T00:27:15.910Z,12.18
2019-05-10T00:27:20.911Z,13.67
2019-05-10T00:27:25.915Z,13.44
2019-05-10T00:27:30.913Z,11.67
2019-05-10T00:27:35.917Z,11.08
2019-05-10T00:27:40.916Z,9.71
2019-05-10T00:27:45.916Z,8.02
2019-05-10T00:27:50.931Z,11.19
2019-05-10T00:27:55.919Z,11.22
2019-05-10T00:28:00.918Z,8.52
2019-05-10T00:28:05.923Z,10.11
2019-05-10T00:28:10.920Z,13.36
2019-05-10T00:28:15.922Z,12.76
2019-05-10T00:28:20.927Z,11.44
2019-05-10T00:28:25.925Z,9.46
2019-05-10T00:28:30.926Z,11.82
2019-05-10T00:28:35.928Z,10.13
2019-05-10T00:28:40.926Z,12.71
2019-05-10T00:28:45.929Z,11.42
2019-05-10T00:28:50.932Z,11.00
2019-05-10T00:28:55.930Z,11.16
2019-05-10T00:29:00.931Z,12.16
2019-05-10T00:29:05.935Z,13.87
2019-05-10T00:29:10.940Z,12.47
2019-05-10T00:29:15.938Z,12.36
2019-05-10T00:29:20.934Z,11.98
2019-05-10T00:29:25.936Z,8.76
2019-05-10T00:29:30.938Z,9.01
2019-05-10T00:29:35.937Z,11.34
2019-05-10T00:29:40.938Z,9.85
2019-05-10T00:29:45.941Z,11.53
2019-05-10T00:29:50.942Z,13.46
2019-05-10T00:29:55.941Z,11.67
2019-05-10T00:30:00.941Z,8.67
2019-05-10T00:30:05.945Z,7.31
2019-05-10T00:30:10.946Z,8.99
2019-05-10T00:30:15.948Z,10.93
2019-05-10T00:30:20.945Z,11.97
2019-05-10T00:30:26.079Z,11.18
2019-05-10T00:30:30.950Z,10.93
2019-05-10T00:30:35.950Z,12.97
2019-05-10T00:30:40.951Z,11.88
2019-05-10T00:30:45.953Z,11.15
2019-05-10T00:30:50.952Z,10.92
2019-05-10T00:30:55.954Z,10.17
2019-05-10T00:31:01.170Z,10.60
2019-05-10T00:31:05.973Z,10.01
2019-05-10T00:31:10.976Z,8.79
2019-05-10T00:31:15.977Z,7.72
2019-05-10T00:31:20.976Z,7.37
2019-05-10T00:31:25.977Z,5.20
2019-05-10T00:31:30.978Z,6.90
2019-05-10T00:31:35.980Z,11.94
2019-05-10T00:31:40.982Z,12.87
2019-05-10T00:31:45.980Z,13.61
2019-05-10T00:31:50.982Z,12.01
2019-05-10T00:31:55.982Z,8.78
2019-05-10T00:32:00.983Z,9.73
2019-05-10T00:32:05.985Z,12.41
2019-05-10T00:32:10.987Z,11.62
2019-05-10T00:32:15.989Z,8.94
2019-05-10T00:32:20.989Z,11.02
2019-05-10T00:32:25.990Z,10.15
2019-05-10T00:32:31.358Z,10.29
2019-05-10T00:32:35.992Z,10.63
2019-05-10T00:32:40.993Z,9.73
2019-05-10T00:32:45.993Z,9.33
2019-05-10T00:32:50.993Z,10.69
2019-05-10T00:32:55.995Z,8.64
2019-05-10T00:33:00.996Z,7.67
2019-05-10T00:33:05.997Z,12.20
2019-05-10T00:33:10.999Z,11.55
2019-05-10T00:33:26.351Z,8.56
2019-05-10T00:33:31.353Z,8.37
2019-05-10T00:33:36.352Z,12.13
2019-05-10T00:33:41.355Z,11.24
2019-05-10T00:33:46.357Z,9.65
2019-05-10T00:33:51.356Z,9.76
2019-05-10T00:33:56.356Z,8.70
2019-05-10T00:34:01.394Z,9.82
2019-05-10T00:34:06.360Z,10.18
2019-05-10T00:34:11.361Z,10.60
2019-05-10T00:34:16.360Z,11.66
2019-05-10T00:34:21.362Z,12.32
2019-05-10T00:34:26.364Z,9.54
2019-05-10T00:34:31.363Z,9.26
2019-05-10T00:34:36.365Z,10.30
2019-05-10T00:34:41.367Z,10.64
2019-05-10T00:34:46.610Z,10.39
2019-05-10T00:34:51.367Z,8.25
2019-05-10T00:34:56.367Z,7.54
2019-05-10T00:35:01.369Z,9.36
2019-05-10T00:35:06.372Z,12.03
2019-05-10T00:35:11.375Z,8.36
2019-05-10T00:35:16.447Z,7.58
2019-05-10T00:35:21.374Z,6.60
2019-05-10T00:35:26.380Z,7.00
2019-05-10T00:35:31.375Z,11.02
2019-05-10T00:35:36.376Z,13.29
2019-05-10T00:35:41.377Z,11.34
2019-05-10T00:35:46.379Z,10.98
2019-05-10T00:35:51.379Z,10.86
2019-05-10T00:35:56.380Z,8.69
2019-05-10T00:36:01.383Z,8.41
2019-05-10T00:36:06.414Z,9.26
2019-05-10T00:36:11.383Z,7.16
2019-05-10T00:36:16.769Z,5.06
2019-05-10T00:36:21.385Z,4.08
2019-05-10T00:36:26.387Z,6.60
2019-05-10T00:36:31.387Z,7.67
2019-05-10T00:36:36.388Z,7.35
2019-05-10T00:36:41.697Z,6.59
2019-05-10T00:36:46.391Z,7.00
2019-05-10T00:36:51.392Z,4.71
2019-05-10T00:36:56.391Z,7.39
2019-05-10T00:37:01.393Z,7.92
2019-05-10T00:37:06.395Z,10.28
2019-05-10T00:37:11.395Z,11.75
2019-05-10T00:37:16.396Z,10.54
2019-05-10T00:37:21.398Z,10.35
2019-05-10T00:37:26.397Z,8.53
2019-05-10T00:37:31.399Z,12.18
2019-05-10T00:37:36.398Z,11.92
2019-05-10T00:37:41.401Z,9.04
2019-05-10T00:37:46.401Z,7.80
2019-05-10T00:37:51.402Z,7.86
2019-05-10T00:37:56.404Z,11.24
2019-05-10T00:38:01.404Z,10.94
2019-05-10T00:38:06.405Z,8.43
2019-05-10T00:38:11.406Z,9.36
2019-05-10T00:38:16.407Z,9.75
2019-05-10T00:38:21.409Z,10.46
2019-05-10T00:38:27.280Z,12.44
2019-05-10T00:38:31.411Z,12.46
2019-05-10T00:38:36.412Z,8.92
2019-05-10T00:38:41.412Z,7.19
2019-05-10T00:38:46.412Z,7.20
2019-05-10T00:38:51.414Z,7.95
2019-05-10T00:38:56.418Z,7.45
2019-05-10T00:39:01.421Z,9.41
2019-05-10T00:39:06.418Z,10.34
2019-05-10T00:39:11.417Z,10.23
2019-05-10T00:39:16.420Z,8.19
2019-05-10T00:39:21.420Z,8.54
2019-05-10T00:39:26.420Z,10.78
2019-05-10T00:39:31.424Z,12.49
2019-05-10T00:39:36.424Z,11.35
2019-05-10T00:39:41.423Z,11.82
2019-05-10T00:39:46.425Z,14.22
2019-05-10T00:39:51.426Z,13.68
2019-05-10T00:39:56.428Z,13.04
2019-05-10T00:40:01.430Z,13.95
2019-05-10T00:40:06.429Z,13.53
2019-05-10T00:40:11.430Z,11.70
2019-05-10T00:40:16.432Z,10.37
2019-05-10T00:40:21.432Z,9.54
2019-05-10T00:40:26.432Z,12.35
2019-05-10T00:40:31.433Z,11.68
2019-05-10T00:40:36.434Z,12.38
2019-05-10T00:40:41.610Z,14.46
2019-05-10T00:40:46.436Z,15.08
2019-05-10T00:40:51.438Z,12.20
2019-05-10T00:40:56.440Z,13.39
2019-05-10T00:41:01.439Z,12.94
2019-05-10T00:41:06.441Z,12.80
2019-05-10T00:41:11.441Z,13.47
2019-05-10T00:41:16.442Z,15.80
2019-05-10T00:41:21.443Z,14.86
2019-05-10T00:41:26.446Z,12.79
2019-05-10T00:41:31.447Z,8.31
2019-05-10T00:41:36.446Z,6.44
2019-05-10T00:41:41.447Z,9.54
2019-05-10T00:41:46.449Z,12.14
2019-05-10T00:41:51.449Z,12.54
2019-05-10T00:41:56.450Z,11.66
2019-05-10T00:42:01.452Z,11.34
2019-05-10T00:42:06.453Z,14.69
2019-05-10T00:42:11.674Z,16.62
2019-05-10T00:42:16.454Z,15.53
2019-05-10T00:42:22.066Z,14.11
2019-05-10T00:42:26.458Z,12.55
2019-05-10T00:42:31.456Z,9.62
2019-05-10T00:42:36.458Z,11.87
2019-05-10T00:42:42.120Z,11.82
2019-05-10T00:42:46.461Z,9.38
2019-05-10T00:42:51.460Z,10.33
2019-05-10T00:42:56.465Z,13.07
2019-05-10T00:43:01.464Z,13.96
2019-05-10T00:43:06.463Z,12.59
2019-05-10T00:43:11.934Z,12.22
2019-05-10T00:43:16.467Z,11.26
2019-05-10T00:43:21.468Z,11.01
2019-05-10T00:43:27.081Z,13.29
2019-05-10T00:43:31.468Z,12.74
2019-05-10T00:43:36.469Z,9.31
2019-05-10T00:43:41.470Z,8.61
2019-05-10T00:43:46.542Z,10.08
2019-05-10T00:43:51.472Z,11.60
2019-05-10T00:43:56.474Z,12.76
2019-05-10T00:44:01.476Z,13.14
2019-05-10T00:44:06.477Z,9.81
2019-05-10T00:44:11.476Z,9.35
2019-05-10T00:44:16.477Z,11.08
2019-05-10T00:44:21.478Z,10.32
2019-05-10T00:44:26.479Z,10.07
2019-05-10T00:44:31.518Z,13.61
2019-05-10T00:44:36.517Z,14.55
2019-05-10T00:44:41.517Z,14.15
2019-05-10T00:44:46.517Z,12.94
2019-05-10T00:44:51.522Z,12.22
2019-05-10T00:44:56.522Z,14.44
2019-05-10T00:45:01.525Z,13.69
2019-05-10T00:45:06.522Z,14.17
2019-05-10T00:45:11.524Z,13.60
2019-05-10T00:45:16.524Z,11.72
2019-05-10T00:45:21.527Z,12.23
2019-05-10T00:45:26.526Z,14.11
2019-05-10T00:45:31.534Z,13.88
2019-05-10T00:45:36.529Z,13.57
2019-05-10T00:45:41.528Z,10.99
2019-05-10T00:45:46.529Z,11.60
2019-05-10T00:45:51.570Z,11.06
2019-05-10T00:45:56.532Z,10.89
2019-05-10T00:46:01.759Z,11.29
2019-05-10T00:46:06.881Z,11.26
2019-05-10T00:46:11.535Z,9.65
2019-05-10T00:46:16.542Z,12.55
2019-05-10T00:46:21.538Z,10.80
2019-05-10T00:46:26.540Z,11.52
2019-05-10T00:46:31.539Z,11.04
2019-05-10T00:46:36.545Z,12.06
2019-05-10T00:46:41.543Z,13.63
2019-05-10T00:46:46.625Z,14.15
2019-05-10T00:46:51.544Z,13.60
2019-05-10T00:46:56.544Z,11.26
2019-05-10T00:47:01.545Z,13.07
2019-05-10T00:47:06.545Z,12.78
2019-05-10T00:47:11.549Z,10.15
2019-05-10T00:47:16.548Z,12.35
2019-05-10T00:47:21.550Z,13.73
2019-05-10T00:47:26.550Z,14.18
2019-05-10T00:47:31.551Z,11.19
2019-05-10T00:47:36.551Z,10.98
2019-05-10T00:47:45.017Z,11.16
2019-05-10T00:47:46.553Z,13.34
2019-05-10T00:47:52.108Z,14.05
2019-05-10T00:47:56.561Z,11.29
2019-05-10T00:48:01.557Z,11.79
2019-05-10T00:48:06.560Z,8.70
2019-05-10T00:48:11.559Z,8.69
2019-05-10T00:48:16.558Z,14.29
2019-05-10T00:48:21.560Z,13.36
2019-05-10T00:48:26.560Z,14.06
2019-05-10T00:48:31.564Z,11.87
2019-05-10T00:48:36.562Z,10.78
2019-05-10T00:48:41.563Z,12.55
2019-05-10T00:48:46.565Z,14.51
2019-05-10T00:48:51.888Z,14.73
2019-05-10T00:48:57.581Z,11.09
2019-05-10T00:49:01.571Z,12.93
2019-05-10T00:49:06.803Z,11.07
2019-05-10T00:49:11.572Z,7.75
2019-05-10T00:49:16.570Z,7.38
2019-05-10T00:49:21.573Z,9.02
2019-05-10T00:49:26.573Z,10.64
2019-05-10T00:49:31.575Z,13.83
2019-05-10T00:49:36.577Z,14.27
2019-05-10T00:49:41.579Z,15.48
2019-05-10T00:49:46.579Z,15.58
2019-05-10T00:49:51.668Z,15.62
2019-05-10T00:49:56.578Z,13.04
2019-05-10T00:50:01.579Z,11.18
2019-05-10T00:50:06.583Z,13.22
2019-05-10T00:50:11.581Z,18.13
2019-05-10T00:50:16.582Z,14.62
2019-05-10T00:50:21.583Z,12.05
2019-05-10T00:50:26.585Z,9.91
2019-05-10T00:50:31.592Z,8.09
2019-05-10T00:50:36.586Z,7.49
2019-05-10T00:50:41.587Z,6.83
2019-05-10T00:50:46.588Z,9.21
2019-05-10T00:50:51.591Z,9.15
2019-05-10T00:50:56.591Z,14.38
2019-05-10T00:51:01.598Z,15.80
2019-05-10T00:51:07.147Z,13.27
2019-05-10T00:51:11.593Z,10.78
2019-05-10T00:51:16.596Z,8.67
2019-05-10T00:51:21.884Z,13.63
2019-05-10T00:51:26.597Z,12.85
2019-05-10T00:51:31.599Z,10.64
2019-05-10T00:51:36.598Z,10.75
2019-05-10T00:51:41.600Z,8.73
2019-05-10T00:51:46.599Z,9.46
2019-05-10T00:51:51.601Z,10.36
2019-05-10T00:51:56.602Z,9.94
2019-05-10T00:52:01.823Z,10.57
2019-05-10T00:52:06.604Z,10.73
2019-05-10T00:52:11.609Z,12.18
2019-05-10T00:52:16.607Z,9.50
2019-05-10T00:52:21.607Z,7.95
2019-05-10T00:52:26.607Z,8.63
2019-05-10T00:52:31.612Z,12.51
2019-05-10T00:52:36.609Z,14.24
2019-05-10T00:52:41.613Z,15.28
2019-05-10T00:52:46.611Z,14.69
2019-05-10T00:52:51.613Z,13.83
2019-05-10T00:52:56.616Z,14.85
2019-05-10T00:53:01.615Z,14.49
2019-05-10T00:53:06.975Z,13.19
2019-05-10T00:53:12.026Z,12.71
2019-05-10T00:53:16.619Z,9.30
2019-05-10T00:53:21.620Z,11.40
2019-05-10T00:53:26.623Z,13.25
2019-05-10T00:53:31.621Z,12.73
2019-05-10T00:53:36.622Z,10.71
2019-05-10T00:53:41.624Z,8.35
2019-05-10T00:53:46.622Z,8.52
2019-05-10T00:53:51.626Z,6.83
2019-05-10T00:53:56.624Z,8.83
2019-05-10T00:54:01.626Z,9.44
2019-05-10T00:54:06.627Z,10.35
2019-05-10T00:54:11.629Z,10.65
2019-05-10T00:54:16.629Z,10.03
2019-05-10T00:54:21.630Z,7.55
2019-05-10T00:54:26.630Z,10.57
2019-05-10T00:54:31.632Z,8.30
2019-05-10T00:54:36.636Z,10.32
2019-05-10T00:54:41.633Z,13.06
2019-05-10T00:54:46.636Z,14.42
2019-05-10T00:54:51.637Z,12.28
2019-05-10T00:54:56.638Z,9.99
2019-05-10T00:55:01.639Z,11.83
2019-05-10T00:55:07.129Z,14.19
2019-05-10T00:55:11.640Z,16.03
2019-05-10T00:55:16.641Z,15.23
2019-05-10T00:55:21.642Z,15.10
2019-05-10T00:55:26.644Z,15.29
2019-05-10T00:55:31.645Z,14.12
2019-05-10T00:55:36.644Z,12.18
2019-05-10T00:55:41.647Z,9.50
2019-05-10T00:55:46.647Z,7.12
2019-05-10T00:55:51.647Z,11.72
2019-05-10T00:55:56.649Z,12.95
2019-05-10T00:56:01.649Z,11.50
2019-05-10T00:56:06.653Z,11.03
2019-05-10T00:56:11.650Z,10.88
2019-05-10T00:56:16.652Z,12.23
2019-05-10T00:56:21.655Z,10.55
2019-05-10T00:56:26.656Z,7.58
2019-05-10T00:56:31.655Z,8.62
2019-05-10T00:56:36.656Z,10.09
2019-05-10T00:56:41.657Z,12.90
2019-05-10T00:56:46.657Z,16.33
2019-05-10T00:56:51.746Z,14.46
2019-05-10T00:56:56.661Z,13.70
2019-05-10T00:57:01.806Z,12.33
2019-05-10T00:57:06.662Z,12.42
2019-05-10T00:57:11.664Z,9.58
2019-05-10T00:57:16.663Z,9.57
2019-05-10T00:57:21.665Z,9.10
2019-05-10T00:57:26.667Z,7.82
2019-05-10T00:57:31.668Z,9.99
2019-05-10T00:57:36.667Z,10.53
2019-05-10T00:57:41.669Z,12.84
2019-05-10T00:57:46.670Z,11.76
2019-05-10T00:57:51.671Z,10.40
2019-05-10T00:57:56.672Z,8.97
2019-05-10T00:58:01.673Z,10.66
2019-05-10T00:58:06.673Z,14.93
2019-05-10T00:58:11.675Z,14.57
2019-05-10T00:58:16.677Z,13.16
2019-05-10T00:58:21.677Z,12.98
2019-05-10T00:58:26.678Z,12.18
2019-05-10T00:58:31.680Z,11.25
2019-05-10T00:58:36.679Z,10.49
2019-05-10T00:58:42.318Z,12.08
2019-05-10T00:58:46.680Z,13.64
2019-05-10T00:58:51.682Z,14.15
2019-05-10T00:58:56.683Z,10.90
2019-05-10T00:59:01.687Z,7.69
2019-05-10T00:59:06.686Z,4.94
2019-05-10T00:59:11.686Z,8.48
2019-05-10T00:59:16.688Z,14.58
2019-05-10T00:59:21.688Z,16.30
2019-05-10T00:59:26.691Z,15.69
2019-05-10T00:59:31.690Z,13.70
2019-05-10T00:59:36.690Z,13.54
2019-05-10T00:59:42.322Z,11.70
2019-05-10T00:59:46.692Z,10.67
2019-05-10T00:59:51.694Z,9.06
2019-05-10T00:59:56.699Z,14.98
2019-05-10T01:00:01.696Z,13.59
2019-05-10T01:00:06.902Z,11.71
2019-05-10T01:00:11.699Z,11.10
2019-05-10T01:00:16.996Z,11.19
2019-05-10T01:00:21.702Z,10.93
2019-05-10T01:00:26.700Z,12.10
2019-05-10T01:00:31.704Z,15.18
2019-05-10T01:00:36.706Z,14.66
2019-05-10T01:00:41.706Z,12.78
2019-05-10T01:00:46.704Z,12.83
2019-05-10T01:00:52.182Z,11.41
2019-05-10T01:00:56.707Z,10.63
2019-05-10T01:01:01.711Z,10.74
2019-05-10T01:01:06.712Z,10.78
2019-05-10T01:01:11.710Z,9.20
2019-05-10T01:01:16.713Z,7.86
2019-05-10T01:01:21.713Z,8.14
2019-05-10T01:01:26.713Z,9.21
2019-05-10T01:01:32.001Z,11.00
2019-05-10T01:01:36.715Z,12.92
2019-05-10T01:01:41.718Z,13.91
2019-05-10T01:01:46.725Z,13.06
2019-05-10T01:01:51.720Z,11.17
2019-05-10T01:01:57.143Z,12.22
2019-05-10T01:02:01.722Z,14.05
2019-05-10T01:02:06.727Z,14.29
2019-05-10T01:02:11.726Z,11.37
2019-05-10T01:02:16.723Z,11.35
2019-05-10T01:02:21.724Z,7.27
2019-05-10T01:02:26.724Z,8.52
2019-05-10T01:02:31.727Z,10.05
2019-05-10T01:02:36.733Z,11.13
2019-05-10T01:02:41.727Z,11.57
2019-05-10T01:02:46.728Z,10.02
2019-05-10T01:02:51.728Z,8.58
2019-05-10T01:02:56.732Z,8.41
2019-05-10T01:03:01.730Z,11.31
2019-05-10T01:03:06.733Z,12.67
2019-05-10T01:03:11.733Z,10.69
2019-05-10T01:03:16.735Z,10.76
2019-05-10T01:03:22.057Z,11.51
2019-05-10T01:03:26.736Z,11.70
2019-05-10T01:03:31.737Z,11.09
2019-05-10T01:03:36.738Z,10.90
2019-05-10T01:03:41.742Z,10.74
2019-05-10T01:03:46.739Z,11.54
2019-05-10T01:03:51.742Z,8.62
2019-05-10T01:03:56.741Z,7.67
2019-05-10T01:04:01.749Z,8.02
2019-05-10T01:04:06.749Z,7.47
2019-05-10T01:04:11.746Z,5.96
2019-05-10T01:04:16.745Z,9.27
2019-05-10T01:04:21.746Z,10.96
2019-05-10T01:04:26.747Z,9.15
2019-05-10T01:04:31.748Z,9.54
2019-05-10T01:04:36.749Z,7.97
2019-05-10T01:04:41.750Z,5.03
2019-05-10T01:04:46.750Z,5.73
2019-05-10T01:04:51.752Z,8.02
2019-05-10T01:04:56.754Z,9.17
2019-05-10T01:05:01.756Z,8.14
2019-05-10T01:05:06.756Z,7.51
2019-05-10T01:05:12.329Z,8.30
2019-05-10T01:05:16.757Z,7.86
2019-05-10T01:05:21.758Z,5.29
2019-05-10T01:05:26.760Z,6.21
2019-05-10T01:05:31.761Z,7.24
2019-05-10T01:05:36.760Z,7.79